Time;durP1;ratioP1;P1;durP2;ratioP2;P2;SDS_P1;SDS_P2;PMS_P1;PMS_P2;Temp;Humidity;BMP_temperature;BMP_pressure;BME280_temperature;BME280_humidity;BME280_pressure;Samples;Min_cycle;Max_cycle;Signal;HPM_P1;HPM_P2
2024/01/06 00:00:50;;;;;;;;;;;19.50;60.10;;;;;;5055835;28;20294;-60
2024/01/06 00:03:16;;;;;;;;;;;19.50;60.10;;;;;;5054730;28;19924;-60
2024/01/06 00:05:41;;;;;;;;;;;19.40;60.00;;;;;;5055783;28;19967;-60
2024/01/06 00:08:07;;;;;;;;;;;19.40;60.00;;;;;;5055266;28;19925;-60
2024/01/06 00:10:32;;;;;;;;;;;19.40;60.00;;;;;;5055152;28;20408;-59
2024/01/06 00:12:58;;;;;;;;;;;19.40;60.10;;;;;;5036136;28;20357;-59
2024/01/06 00:15:23;;;;;;;;;;;19.40;60.00;;;;;;5035565;28;19925;-59
2024/01/06 00:17:49;;;;;;;;;;;19.40;60.00;;;;;;5017056;28;19932;-59
2024/01/06 00:20:14;;;;;;;;;;;19.40;60.00;;;;;;5035313;28;19929;-59
2024/01/06 00:22:42;;;;;;;;;;;19.30;60.00;;;;;;5030328;28;20316;-60
2024/01/06 00:25:08;;;;;;;;;;;19.30;59.90;;;;;;5014973;28;19925;-60
2024/01/06 00:27:33;;;;;;;;;;;19.30;59.90;;;;;;5015899;28;20020;-60
2024/01/06 00:29:59;;;;;;;;;;;19.30;59.90;;;;;;5014932;28;20389;-60
2024/01/06 00:32:24;;;;;;;;;;;19.30;59.90;;;;;;5014983;28;19977;-60
2024/01/06 00:34:49;;;;;;;;;;;19.30;59.90;;;;;;5014840;28;19976;-60
2024/01/06 00:37:15;;;;;;;;;;;19.30;59.90;;;;;;5015364;28;20313;-60
2024/01/06 00:39:40;;;;;;;;;;;19.30;59.80;;;;;;4996977;28;20369;-60
2024/01/06 00:42:06;;;;;;;;;;;19.30;59.80;;;;;;5015003;28;19993;-59
2024/01/06 00:44:31;;;;;;;;;;;19.20;59.80;;;;;;4997979;28;19980;-59
2024/01/06 00:46:57;;;;;;;;;;;19.20;59.80;;;;;;4996511;28;20304;-59
2024/01/06 00:49:22;;;;;;;;;;;19.20;59.70;;;;;;5015165;28;19933;-59
2024/01/06 00:51:48;;;;;;;;;;;19.20;59.70;;;;;;5015431;28;19929;-59
2024/01/06 00:54:13;;;;;;;;;;;19.20;59.60;;;;;;4996920;28;19926;-59
2024/01/06 00:56:39;;;;;;;;;;;19.20;59.60;;;;;;5015518;28;20277;-59
2024/01/06 00:59:04;;;;;;;;;;;19.20;59.50;;;;;;4997596;28;19972;-59
2024/01/06 01:01:30;;;;;;;;;;;19.10;59.40;;;;;;5028980;28;19940;-60
2024/01/06 01:03:55;;;;;;;;;;;19.10;59.40;;;;;;5014678;28;19926;-60
2024/01/06 01:06:21;;;;;;;;;;;19.10;59.40;;;;;;5014411;28;19976;-60
2024/01/06 01:08:47;;;;;;;;;;;19.10;59.40;;;;;;5033636;28;19925;-59
2024/01/06 01:11:12;;;;;;;;;;;19.10;59.40;;;;;;5034498;28;20027;-60
2024/01/06 01:13:38;;;;;;;;;;;19.10;59.40;;;;;;5034134;28;20269;-60
2024/01/06 01:16:03;;;;;;;;;;;19.10;59.30;;;;;;5034242;28;19952;-59
2024/01/06 01:18:29;;;;;;;;;;;19.10;59.30;;;;;;5015815;28;19925;-59
2024/01/06 01:20:55;;;;;;;;;;;19.10;59.20;;;;;;5013458;28;20008;-60
2024/01/06 01:23:20;;;;;;;;;;;19.00;59.20;;;;;;5014484;28;19925;-59
2024/01/06 01:25:46;;;;;;;;;;;19.00;59.10;;;;;;5014856;28;19932;-59
2024/01/06 01:28:12;;;;;;;;;;;19.00;59.20;;;;;;5013538;28;19952;-59
2024/01/06 01:30:38;;;;;;;;;;;19.00;59.10;;;;;;5014513;28;19929;-59
2024/01/06 01:33:03;;;;;;;;;;;19.00;59.10;;;;;;4996850;28;19980;-59
2024/01/06 01:35:29;;;;;;;;;;;19.00;59.10;;;;;;5013981;28;19926;-59
2024/01/06 01:37:54;;;;;;;;;;;19.00;59.10;;;;;;5014277;28;19925;-60
2024/01/06 01:40:20;;;;;;;;;;;19.00;59.10;;;;;;5014335;28;20024;-59
2024/01/06 01:42:45;;;;;;;;;;;19.00;59.00;;;;;;5013430;28;20431;-59
2024/01/06 01:45:11;;;;;;;;;;;19.00;59.00;;;;;;5014213;28;20201;-59
2024/01/06 01:47:36;;;;;;;;;;;18.90;59.00;;;;;;5013635;28;19926;-59
2024/01/06 01:50:02;;;;;;;;;;;18.90;58.90;;;;;;5013259;28;19925;-59
2024/01/06 01:52:27;;;;;;;;;;;18.90;59.00;;;;;;4996028;28;19926;-59
2024/01/06 01:54:53;;;;;;;;;;;18.90;58.90;;;;;;5024405;28;20384;-59
2024/01/06 01:57:18;;;;;;;;;;;18.90;58.90;;;;;;5015741;28;19925;-59
2024/01/06 01:59:44;;;;;;;;;;;18.90;58.90;;;;;;5033646;28;19925;-59
2024/01/06 02:02:09;;;;;;;;;;;18.90;58.90;;;;;;5015849;28;19936;-60
2024/01/06 02:04:35;;;;;;;;;;;18.90;58.80;;;;;;5033005;28;19925;-59
2024/01/06 02:07:00;;;;;;;;;;;18.90;58.80;;;;;;5032991;28;19928;-59
2024/01/06 02:09:29;;;;;;;;;;;18.90;58.90;;;;;;5033473;28;19932;-59
2024/01/06 02:11:56;;;;;;;;;;;18.80;58.90;;;;;;4999361;28;19932;-60
2024/01/06 02:14:22;;;;;;;;;;;18.80;58.80;;;;;;5015801;28;19952;-60
2024/01/06 02:16:47;;;;;;;;;;;18.80;58.80;;;;;;5032592;28;19926;-60
2024/01/06 02:19:13;;;;;;;;;;;18.80;58.80;;;;;;5015853;28;20324;-60
2024/01/06 02:21:42;;;;;;;;;;;18.80;58.80;;;;;;5015675;28;19925;-60
2024/01/06 02:24:07;;;;;;;;;;;18.80;58.80;;;;;;5032344;28;19925;-60
2024/01/06 02:26:33;;;;;;;;;;;18.80;58.70;;;;;;5033258;28;20016;-60
2024/01/06 02:28:58;;;;;;;;;;;18.80;58.70;;;;;;5033006;28;19925;-60
2024/01/06 02:31:24;;;;;;;;;;;18.80;58.70;;;;;;5032180;28;19929;-59
2024/01/06 02:33:49;;;;;;;;;;;18.70;58.70;;;;;;5033160;28;20016;-59
2024/01/06 02:36:15;;;;;;;;;;;18.80;58.70;;;;;;5033162;28;19925;-59
2024/01/06 02:38:40;;;;;;;;;;;18.70;58.60;;;;;;5032122;28;19976;-59
2024/01/06 02:41:06;;;;;;;;;;;18.70;58.60;;;;;;5032903;28;20277;-60
2024/01/06 02:43:32;;;;;;;;;;;18.70;59.30;;;;;;5033091;28;20434;-59
2024/01/06 02:45:57;;;;;;;;;;;18.70;58.50;;;;;;5032002;28;20016;-59
2024/01/06 02:48:22;;;;;;;;;;;18.70;58.70;;;;;;5015788;28;20296;-59
2024/01/06 02:50:48;;;;;;;;;;;18.70;58.50;;;;;;5013475;28;19925;-59
2024/01/06 02:53:13;;;;;;;;;;;18.70;58.50;;;;;;5012979;28;20015;-59
2024/01/06 02:55:39;;;;;;;;;;;18.70;58.50;;;;;;4996089;28;19929;-59
2024/01/06 02:58:05;;;;;;;;;;;18.70;58.50;;;;;;5013086;28;19972;-60
2024/01/06 03:00:30;;;;;;;;;;;18.70;58.50;;;;;;5022582;28;19955;-60
2024/01/06 03:02:56;;;;;;;;;;;18.70;58.60;;;;;;5032809;28;19952;-59
2024/01/06 03:05:21;;;;;;;;;;;18.70;58.50;;;;;;5035963;28;20007;-60
2024/01/06 03:07:46;;;;;;;;;;;18.70;59.30;;;;;;5036250;28;20408;-60
2024/01/06 03:10:12;;;;;;;;;;;18.70;58.60;;;;;;5036538;28;19979;-60
2024/01/06 03:12:37;;;;;;;;;;;18.70;58.60;;;;;;5037045;28;19971;-59
2024/01/06 03:15:03;;;;;;;;;;;18.70;58.60;;;;;;5028990;28;20012;-59
2024/01/06 03:17:29;;;;;;;;;;;18.70;58.60;;;;;;5017310;28;19925;-59
2024/01/06 03:19:54;;;;;;;;;;;18.70;58.60;;;;;;4998450;28;19925;-60
2024/01/06 03:22:20;;;;;;;;;;;18.70;58.60;;;;;;5016698;28;19977;-60
2024/01/06 03:24:45;;;;;;;;;;;18.70;58.60;;;;;;5016826;28;20012;-60
2024/01/06 03:27:11;;;;;;;;;;;18.70;58.60;;;;;;5015941;28;20297;-60
2024/01/06 03:29:36;;;;;;;;;;;18.70;58.60;;;;;;5016963;28;19925;-60
2024/01/06 03:32:01;;;;;;;;;;;18.70;58.60;;;;;;5016727;28;19932;-60
2024/01/06 03:34:27;;;;;;;;;;;18.70;58.60;;;;;;5016193;28;20399;-60
2024/01/06 03:36:52;;;;;;;;;;;18.80;58.60;;;;;;4998817;28;20427;-60
2024/01/06 03:39:18;;;;;;;;;;;18.80;58.60;;;;;;5016483;28;20431;-60
2024/01/06 03:41:43;;;;;;;;;;;18.80;58.50;;;;;;5016095;28;19933;-60
2024/01/06 03:44:09;;;;;;;;;;;18.80;58.60;;;;;;5016098;28;20373;-60
2024/01/06 03:46:34;;;;;;;;;;;18.80;58.50;;;;;;5019965;28;19925;-59
2024/01/06 03:49:00;;;;;;;;;;;18.80;58.50;;;;;;5035260;28;19935;-59
2024/01/06 03:51:25;;;;;;;;;;;18.90;58.60;;;;;;5036520;28;19932;-60
2024/01/06 03:53:51;;;;;;;;;;;18.90;58.50;;;;;;5036131;28;19929;-59
2024/01/06 03:56:17;;;;;;;;;;;18.90;58.60;;;;;;5035464;28;19979;-59
2024/01/06 03:58:42;;;;;;;;;;;18.90;58.50;;;;;;5036166;28;20373;-59
2024/01/06 04:01:07;;;;;;;;;;;18.90;58.50;;;;;;5035267;28;19975;-60
2024/01/06 04:03:33;;;;;;;;;;;18.90;58.40;;;;;;5017756;28;19925;-59
2024/01/06 04:05:58;;;;;;;;;;;19.00;58.50;;;;;;5035575;28;19925;-60
2024/01/06 04:08:24;;;;;;;;;;;19.00;58.50;;;;;;5035891;28;20008;-59
2024/01/06 04:10:49;;;;;;;;;;;19.00;58.40;;;;;;5035310;28;20102;-59
2024/01/06 04:13:15;;;;;;;;;;;19.00;58.40;;;;;;5035627;28;20011;-59
2024/01/06 04:15:40;;;;;;;;;;;19.00;58.40;;;;;;5034982;28;19929;-60
2024/01/06 04:18:06;;;;;;;;;;;19.00;58.30;;;;;;5034772;28;20015;-59
2024/01/06 04:20:32;;;;;;;;;;;19.00;58.30;;;;;;5035417;28;19929;-60
2024/01/06 04:22:57;;;;;;;;;;;19.10;58.30;;;;;;5034481;28;19972;-60
2024/01/06 04:25:23;;;;;;;;;;;19.10;58.30;;;;;;5034662;28;19925;-60
2024/01/06 04:27:48;;;;;;;;;;;19.10;58.30;;;;;;5017726;28;19932;-60
2024/01/06 04:30:14;;;;;;;;;;;19.10;58.30;;;;;;5016950;28;20020;-60
2024/01/06 04:32:40;;;;;;;;;;;19.10;58.20;;;;;;5017718;28;20446;-60
2024/01/06 04:35:05;;;;;;;;;;;19.10;58.20;;;;;;5035130;28;19925;-60
2024/01/06 04:37:31;;;;;;;;;;;19.10;58.20;;;;;;5034673;28;20737;-60
2024/01/06 04:39:56;;;;;;;;;;;19.10;58.20;;;;;;5037887;28;20249;-60
2024/01/06 04:42:22;;;;;;;;;;;19.20;58.20;;;;;;5055051;28;19966;-60
2024/01/06 04:44:48;;;;;;;;;;;19.20;58.20;;;;;;5054580;28;19924;-60
2024/01/06 04:47:13;;;;;;;;;;;19.20;58.10;;;;;;5055040;28;19970;-60
2024/01/06 04:49:39;;;;;;;;;;;19.20;58.10;;;;;;5055299;28;19925;-60
2024/01/06 04:52:04;;;;;;;;;;;19.20;58.10;;;;;;5054158;28;20431;-60
2024/01/06 04:54:30;;;;;;;;;;;19.20;58.10;;;;;;5055099;28;19929;-59
2024/01/06 04:56:56;;;;;;;;;;;19.30;58.10;;;;;;5054510;28;19978;-60
2024/01/06 04:59:21;;;;;;;;;;;19.30;58.10;;;;;;5053970;28;19960;-59
2024/01/06 05:01:47;;;;;;;;;;;19.30;58.20;;;;;;5034969;28;19925;-59
2024/01/06 05:04:12;;;;;;;;;;;19.30;58.10;;;;;;5033539;28;19925;-59
2024/01/06 05:06:38;;;;;;;;;;;19.30;58.10;;;;;;5033421;28;19925;-59
2024/01/06 05:09:03;;;;;;;;;;;19.30;58.10;;;;;;5034317;28;19925;-59
2024/01/06 05:11:29;;;;;;;;;;;19.30;58.00;;;;;;5034690;28;19932;-59
2024/01/06 05:13:54;;;;;;;;;;;19.30;58.10;;;;;;5016109;28;19929;-59
2024/01/06 05:16:20;;;;;;;;;;;19.40;58.10;;;;;;5016684;28;20394;-60
2024/01/06 05:18:46;;;;;;;;;;;19.40;58.10;;;;;;5034846;28;19987;-59
2024/01/06 05:21:11;;;;;;;;;;;19.40;58.00;;;;;;5033271;28;19933;-60
2024/01/06 05:23:37;;;;;;;;;;;19.40;58.00;;;;;;5034358;28;20312;-59
2024/01/06 05:26:02;;;;;;;;;;;19.40;58.00;;;;;;5034351;28;20022;-60
2024/01/06 05:28:28;;;;;;;;;;;19.40;58.00;;;;;;5032527;28;19928;-60
2024/01/06 05:30:53;;;;;;;;;;;19.40;58.00;;;;;;5034260;28;19952;-60
2024/01/06 05:33:19;;;;;;;;;;;19.40;58.00;;;;;;5034521;28;19925;-60
2024/01/06 05:35:44;;;;;;;;;;;19.50;58.00;;;;;;5016077;28;19972;-59
2024/01/06 05:38:10;;;;;;;;;;;19.50;58.00;;;;;;5033687;28;19936;-59
2024/01/06 05:40:35;;;;;;;;;;;19.50;58.00;;;;;;5033343;28;19948;-59
2024/01/06 05:43:01;;;;;;;;;;;19.50;57.90;;;;;;5033516;28;19972;-59
2024/01/06 05:45:26;;;;;;;;;;;19.50;57.90;;;;;;5034242;28;19979;-59
2024/01/06 05:47:52;;;;;;;;;;;19.50;57.90;;;;;;5032893;28;19929;-60
2024/01/06 05:50:17;;;;;;;;;;;19.50;57.90;;;;;;5034049;28;19932;-60
2024/01/06 05:52:43;;;;;;;;;;;19.50;57.90;;;;;;5033926;28;19929;-60
2024/01/06 05:55:09;;;;;;;;;;;19.50;57.90;;;;;;5033009;28;19932;-59
2024/01/06 05:57:34;;;;;;;;;;;19.50;57.90;;;;;;5033703;28;20335;-59
2024/01/06 06:00:00;;;;;;;;;;;19.50;57.90;;;;;;5033640;28;19925;-59
2024/01/06 06:02:25;;;;;;;;;;;19.50;57.90;;;;;;5032069;28;19932;-59
2024/01/06 06:04:52;;;;;;;;;;;19.50;57.90;;;;;;5016278;28;19948;-59
2024/01/06 06:07:17;;;;;;;;;;;19.50;57.80;;;;;;5033564;28;19921;-60
2024/01/06 06:09:43;;;;;;;;;;;19.50;57.90;;;;;;5032982;28;19956;-59
2024/01/06 06:12:08;;;;;;;;;;;19.50;57.80;;;;;;5015561;28;20299;-59
2024/01/06 06:14:34;;;;;;;;;;;19.50;57.80;;;;;;5033685;28;20023;-59
2024/01/06 06:16:59;;;;;;;;;;;19.50;57.80;;;;;;5014825;28;19933;-59
2024/01/06 06:19:25;;;;;;;;;;;19.50;57.80;;;;;;5016124;28;19921;-59
2024/01/06 06:21:50;;;;;;;;;;;19.50;57.80;;;;;;5033194;28;19929;-59
2024/01/06 06:24:16;;;;;;;;;;;19.50;57.80;;;;;;5032565;28;20380;-59
2024/01/06 06:26:41;;;;;;;;;;;19.50;57.70;;;;;;5015565;28;19921;-59
2024/01/06 06:29:07;;;;;;;;;;;19.60;57.80;;;;;;5033073;28;20339;-59
2024/01/06 06:31:33;;;;;;;;;;;19.60;57.70;;;;;;5032184;28;20011;-59
2024/01/06 06:33:58;;;;;;;;;;;19.60;57.70;;;;;;5032813;28;20007;-59
2024/01/06 06:36:24;;;;;;;;;;;19.60;57.70;;;;;;5015569;28;20376;-59
2024/01/06 06:38:49;;;;;;;;;;;19.60;57.70;;;;;;5032089;28;19921;-59
2024/01/06 06:41:16;;;;;;;;;;;19.60;57.60;;;;;;5032781;28;19953;-59
2024/01/06 06:43:41;;;;;;;;;;;19.60;57.60;;;;;;5033212;28;19929;-59
2024/01/06 06:46:07;;;;;;;;;;;19.60;57.60;;;;;;5032324;28;19963;-59
2024/01/06 06:48:32;;;;;;;;;;;19.60;57.60;;;;;;5012659;28;19951;-59
2024/01/06 06:50:58;;;;;;;;;;;19.60;57.50;;;;;;5030576;28;20372;-60
2024/01/06 06:53:23;;;;;;;;;;;19.60;57.50;;;;;;5013096;28;20020;-59
2024/01/06 06:55:49;;;;;;;;;;;19.60;57.50;;;;;;5012946;28;19926;-60
2024/01/06 06:58:14;;;;;;;;;;;19.60;57.50;;;;;;5012583;28;19937;-59
2024/01/06 07:00:39;;;;;;;;;;;19.60;57.50;;;;;;5019782;28;19929;-63
2024/01/06 07:03:05;;;;;;;;;;;19.60;57.40;;;;;;5005360;28;19963;-60
2024/01/06 07:05:30;;;;;;;;;;;19.70;57.50;;;;;;5032233;28;20423;-60
2024/01/06 07:07:56;;;;;;;;;;;19.70;57.50;;;;;;5032494;28;19987;-60
2024/01/06 07:10:22;;;;;;;;;;;19.70;57.40;;;;;;5015010;28;19976;-59
2024/01/06 07:12:47;;;;;;;;;;;19.70;57.40;;;;;;5032142;28;19992;-60
2024/01/06 07:15:13;;;;;;;;;;;19.70;57.40;;;;;;5032035;28;19976;-59
2024/01/06 07:17:38;;;;;;;;;;;19.70;57.40;;;;;;5033142;28;20324;-59
2024/01/06 07:20:07;;;;;;;;;;;19.70;57.40;;;;;;5031953;28;19925;-59
2024/01/06 07:22:34;;;;;;;;;;;19.70;57.40;;;;;;5032556;28;19951;-60
2024/01/06 07:25:00;;;;;;;;;;;19.70;57.40;;;;;;5014478;28;19932;-59
2024/01/06 07:27:25;;;;;;;;;;;19.70;57.40;;;;;;5032189;28;19925;-58
2024/01/06 07:29:51;;;;;;;;;;;19.70;57.50;;;;;;5032740;28;19929;-59
2024/01/06 07:32:16;;;;;;;;;;;19.70;57.40;;;;;;5032395;28;19969;-59
2024/01/06 07:34:43;;;;;;;;;;;19.70;57.40;;;;;;5031609;28;20368;-59
2024/01/06 07:37:08;;;;;;;;;;;19.70;57.50;;;;;;5014713;28;20018;-59
2024/01/06 07:39:34;;;;;;;;;;;19.70;57.50;;;;;;5032738;28;19995;-59
2024/01/06 07:41:59;;;;;;;;;;;19.70;57.60;;;;;;5031559;28;19932;-60
2024/01/06 07:44:25;;;;;;;;;;;19.70;57.50;;;;;;5032297;28;19995;-60
2024/01/06 07:46:51;;;;;;;;;;;19.70;57.70;;;;;;5032463;28;19929;-60
2024/01/06 07:49:16;;;;;;;;;;;19.70;57.80;;;;;;5031677;28;19925;-59
2024/01/06 07:51:42;;;;;;;;;;;19.70;57.90;;;;;;5034694;28;20300;-61
2024/01/06 07:54:08;;;;;;;;;;;19.80;58.00;;;;;;5018032;28;19979;-59
2024/01/06 07:56:34;;;;;;;;;;;19.80;58.20;;;;;;5015908;28;20400;-60
2024/01/06 07:59:00;;;;;;;;;;;19.80;58.20;;;;;;5016231;28;19925;-60
2024/01/06 08:01:26;;;;;;;;;;;19.80;58.30;;;;;;5015309;28;19926;-60
2024/01/06 08:03:51;;;;;;;;;;;19.80;58.30;;;;;;5016305;28;19925;-60
2024/01/06 08:06:17;;;;;;;;;;;19.80;58.30;;;;;;5016237;28;20042;-60
2024/01/06 08:08:42;;;;;;;;;;;19.80;58.30;;;;;;4997550;28;19941;-60
2024/01/06 08:11:08;;;;;;;;;;;19.80;58.40;;;;;;5016023;28;20040;-60
2024/01/06 08:13:34;;;;;;;;;;;19.80;58.40;;;;;;5016129;28;19993;-60
2024/01/06 08:15:59;;;;;;;;;;;19.80;58.50;;;;;;4997570;28;20392;-60
2024/01/06 08:18:25;;;;;;;;;;;19.90;58.50;;;;;;4982416;28;19991;-60
2024/01/06 08:20:50;;;;;;;;;;;19.90;58.40;;;;;;5015997;28;19975;-60
2024/01/06 08:23:18;;;;;;;;;;;19.80;58.50;;;;;;5014368;28;20296;-60
2024/01/06 08:25:45;;;;;;;;;;;19.90;58.50;;;;;;5016008;28;19933;-60
2024/01/06 08:28:11;;;;;;;;;;;19.90;58.40;;;;;;5015685;28;19956;-61
2024/01/06 08:30:36;;;;;;;;;;;19.90;58.40;;;;;;5015048;28;20373;-60
2024/01/06 08:33:02;;;;;;;;;;;19.90;58.30;;;;;;5015336;28;19930;-60
2024/01/06 08:35:27;;;;;;;;;;;19.90;58.40;;;;;;5015590;28;20281;-60
2024/01/06 08:37:53;;;;;;;;;;;19.90;58.10;;;;;;4996968;28;19932;-60
2024/01/06 08:40:18;;;;;;;;;;;19.90;58.30;;;;;;5015622;28;19972;-60
2024/01/06 08:42:44;;;;;;;;;;;19.90;58.30;;;;;;5015629;28;20441;-59
2024/01/06 08:45:09;;;;;;;;;;;19.90;58.30;;;;;;5014304;28;19925;-59
2024/01/06 08:47:35;;;;;;;;;;;19.90;58.30;;;;;;5015442;28;19961;-60
2024/01/06 08:50:00;;;;;;;;;;;19.90;58.30;;;;;;5014941;28;19956;-60
2024/01/06 08:52:26;;;;;;;;;;;19.90;58.30;;;;;;4999752;28;19925;-59
2024/01/06 08:54:51;;;;;;;;;;;20.00;58.30;;;;;;5034804;28;19983;-59
2024/01/06 08:57:17;;;;;;;;;;;19.90;58.30;;;;;;5034908;28;19978;-60
2024/01/06 08:59:45;;;;;;;;;;;20.00;58.30;;;;;;5034384;28;19925;-59
2024/01/06 09:02:10;;;;;;;;;;;20.00;58.30;;;;;;5034317;28;19932;-59
2024/01/06 09:04:36;;;;;;;;;;;20.00;58.20;;;;;;5033794;28;19925;-59
2024/01/06 09:07:01;;;;;;;;;;;20.00;58.30;;;;;;5034705;28;19925;-60
2024/01/06 09:09:28;;;;;;;;;;;20.00;58.20;;;;;;5034588;28;19964;-60
2024/01/06 09:11:53;;;;;;;;;;;20.00;58.20;;;;;;5029718;28;19929;-60
2024/01/06 09:14:19;;;;;;;;;;;20.00;58.20;;;;;;5034450;28;19925;-60
2024/01/06 09:16:44;;;;;;;;;;;20.00;58.30;;;;;;5034321;28;19996;-59
2024/01/06 09:19:10;;;;;;;;;;;20.00;58.20;;;;;;5033431;28;19968;-60
2024/01/06 09:21:36;;;;;;;;;;;20.00;58.20;;;;;;5034124;28;20016;-60
2024/01/06 09:24:05;;;;;;;;;;;20.00;58.20;;;;;;5033851;28;19929;-60
2024/01/06 09:26:34;;;;;;;;;;;20.00;58.10;;;;;;5033649;28;19935;-60
2024/01/06 09:29:00;;;;;;;;;;;20.00;58.00;;;;;;5016272;28;19932;-60
2024/01/06 09:31:25;;;;;;;;;;;20.00;58.10;;;;;;5034327;28;20019;-59
2024/01/06 09:33:51;;;;;;;;;;;20.00;58.10;;;;;;4996122;28;20016;-59
2024/01/06 09:36:17;;;;;;;;;;;20.00;58.00;;;;;;5014579;28;19932;-60
2024/01/06 09:38:43;;;;;;;;;;;19.90;57.90;;;;;;5032832;28;19925;-62
2024/01/06 09:41:08;;;;;;;;;;;19.90;57.80;;;;;;5015389;28;19925;-59
2024/01/06 09:43:34;;;;;;;;;;;19.90;57.40;;;;;;5034022;28;19925;-59
2024/01/06 09:46:07;;;;;;;;;;;19.90;57.60;;;;;;5016038;28;19971;-59
2024/01/06 09:48:33;;;;;;;;;;;19.90;57.70;;;;;;5033337;28;19932;-60
2024/01/06 09:51:01;;;;;;;;;;;19.90;57.70;;;;;;5015956;28;19929;-59
2024/01/06 09:53:27;;;;;;;;;;;19.90;57.70;;;;;;5016433;28;20038;-59
2024/01/06 09:55:54;;;;;;;;;;;19.90;57.80;;;;;;5015346;28;19925;-59
2024/01/06 09:58:19;;;;;;;;;;;19.90;57.80;;;;;;5033717;28;19931;-59
2024/01/06 10:00:45;;;;;;;;;;;19.90;57.80;;;;;;5033111;28;19925;-59
2024/01/06 10:03:10;;;;;;;;;;;19.90;57.70;;;;;;5015136;28;19925;-59
2024/01/06 10:05:36;;;;;;;;;;;19.90;57.70;;;;;;5033675;28;19936;-59
2024/01/06 10:08:04;;;;;;;;;;;19.90;57.80;;;;;;5014741;28;19977;-59
2024/01/06 10:10:29;;;;;;;;;;;19.90;57.80;;;;;;5033625;28;19925;-59
2024/01/06 10:12:55;;;;;;;;;;;19.90;57.80;;;;;;5032905;28;19925;-59
2024/01/06 10:15:20;;;;;;;;;;;19.90;57.80;;;;;;5032532;28;19925;-60
2024/01/06 10:17:46;;;;;;;;;;;19.90;57.80;;;;;;5015841;28;20304;-60
2024/01/06 10:20:12;;;;;;;;;;;19.90;57.70;;;;;;5033352;28;19936;-60
2024/01/06 10:22:37;;;;;;;;;;;19.90;57.70;;;;;;5032410;28;20016;-60
2024/01/06 10:25:07;;;;;;;;;;;19.90;57.70;;;;;;5033035;28;20422;-60
2024/01/06 10:27:35;;;;;;;;;;;19.90;57.70;;;;;;5033024;28;19952;-60
2024/01/06 10:30:01;;;;;;;;;;;19.90;57.70;;;;;;5028450;28;20022;-60
2024/01/06 10:32:28;;;;;;;;;;;19.90;57.60;;;;;;5033073;28;19976;-60
2024/01/06 10:34:54;;;;;;;;;;;19.90;57.70;;;;;;5028396;28;19932;-59
2024/01/06 10:37:20;;;;;;;;;;;19.80;57.60;;;;;;5014547;28;19937;-60
2024/01/06 10:39:45;;;;;;;;;;;19.90;57.60;;;;;;5032781;28;19972;-60
2024/01/06 10:42:12;;;;;;;;;;;19.90;57.60;;;;;;5030953;28;19976;-59
2024/01/06 10:44:38;;;;;;;;;;;19.80;57.40;;;;;;4996623;28;19925;-60
2024/01/06 10:47:03;;;;;;;;;;;19.90;57.50;;;;;;5031125;28;19921;-60
2024/01/06 10:49:29;;;;;;;;;;;19.80;57.40;;;;;;5015065;28;20011;-60
2024/01/06 10:51:55;;;;;;;;;;;19.80;57.30;;;;;;5032139;28;20327;-59
2024/01/06 10:54:20;;;;;;;;;;;19.80;57.40;;;;;;5033110;28;20427;-60
2024/01/06 10:56:46;;;;;;;;;;;19.80;57.30;;;;;;5015365;28;19925;-59
2024/01/06 10:59:11;;;;;;;;;;;19.80;57.30;;;;;;5014640;28;19929;-59
2024/01/06 11:01:37;;;;;;;;;;;19.80;57.40;;;;;;5015153;28;19925;-59
2024/01/06 11:04:06;;;;;;;;;;;19.80;57.50;;;;;;5014733;28;19991;-60
2024/01/06 11:06:32;;;;;;;;;;;19.80;57.60;;;;;;5032948;28;19965;-61
2024/01/06 11:09:18;;;;;;;;;;;19.80;57.90;;;;;;5014822;28;19971;-60
2024/01/06 11:11:43;;;;;;;;;;;19.80;58.00;;;;;;5027685;28;19932;-60
2024/01/06 11:14:19;;;;;;;;;;;19.80;57.90;;;;;;5052491;28;19925;-60
2024/01/06 11:16:45;;;;;;;;;;;19.80;58.10;;;;;;5034659;28;20292;-61
2024/01/06 11:19:29;;;;;;;;;;;19.80;58.10;;;;;;5031642;28;20415;-59
2024/01/06 11:21:54;;;;;;;;;;;19.80;58.10;;;;;;5031991;28;19925;-59
2024/01/06 11:24:25;;;;;;;;;;;19.80;58.20;;;;;;5032461;28;19932;-59
2024/01/06 11:26:51;;;;;;;;;;;19.80;58.20;;;;;;5034243;28;20012;-59
2024/01/06 11:29:19;;;;;;;;;;;19.80;58.20;;;;;;5036689;28;19925;-59
2024/01/06 11:32:04;;;;;;;;;;;19.80;58.10;;;;;;5019200;28;19921;-59
2024/01/06 11:34:30;;;;;;;;;;;19.80;58.10;;;;;;5035470;28;19978;-59
2024/01/06 11:36:55;;;;;;;;;;;19.80;58.10;;;;;;5035456;28;20007;-66
2024/01/06 11:39:38;;;;;;;;;;;19.80;58.00;;;;;;5033186;28;20402;-60
2024/01/06 11:42:03;;;;;;;;;;;19.80;57.80;;;;;;5035792;28;20261;-60
2024/01/06 11:44:29;;;;;;;;;;;19.80;57.70;;;;;;5036353;28;20434;-60
2024/01/06 11:46:57;;;;;;;;;;;19.80;57.70;;;;;;5017601;28;19925;-60
2024/01/06 11:49:23;;;;;;;;;;;19.80;57.70;;;;;;5036319;28;19925;-60
2024/01/06 11:51:48;;;;;;;;;;;19.80;57.70;;;;;;5018281;28;19925;-60
2024/01/06 11:54:14;;;;;;;;;;;19.80;57.70;;;;;;5035135;28;20345;-60
2024/01/06 11:56:39;;;;;;;;;;;19.80;57.70;;;;;;5034259;28;19933;-59
2024/01/06 11:59:05;;;;;;;;;;;19.80;57.70;;;;;;5035705;28;20377;-60
2024/01/06 12:01:37;;;;;;;;;;;19.80;57.60;;;;;;5035320;28;19975;-60
2024/01/06 12:04:04;;;;;;;;;;;19.80;57.50;;;;;;5035538;28;19932;-60
2024/01/06 12:06:30;;;;;;;;;;;19.80;57.10;;;;;;5035924;28;20019;-59
2024/01/06 12:09:05;;;;;;;;;;;19.70;57.00;;;;;;5028552;28;19976;-59
2024/01/06 12:11:30;;;;;;;;;;;19.70;57.90;;;;;;4998396;28;20288;-59
2024/01/06 12:13:56;;;;;;;;;;;19.70;57.10;;;;;;5015378;28;19921;-60
2024/01/06 12:16:22;;;;;;;;;;;19.70;57.00;;;;;;5015442;28;19929;-59
2024/01/06 12:18:47;;;;;;;;;;;19.70;57.00;;;;;;5016141;28;19922;-59
2024/01/06 12:21:12;;;;;;;;;;;19.70;57.00;;;;;;5015495;28;19926;-59
2024/01/06 12:23:38;;;;;;;;;;;19.70;57.10;;;;;;5015425;28;20011;-59
2024/01/06 12:26:03;;;;;;;;;;;19.70;57.10;;;;;;5015395;28;19929;-59
2024/01/06 12:28:29;;;;;;;;;;;19.70;57.10;;;;;;5015188;28;20356;-60
2024/01/06 12:30:54;;;;;;;;;;;19.70;57.20;;;;;;5015522;28;19925;-59
2024/01/06 12:33:20;;;;;;;;;;;19.70;57.20;;;;;;4998174;28;20056;-60
2024/01/06 12:35:45;;;;;;;;;;;19.70;57.20;;;;;;5015165;28;19925;-59
2024/01/06 12:38:11;;;;;;;;;;;19.70;57.10;;;;;;5014831;28;20149;-59
2024/01/06 12:40:37;;;;;;;;;;;19.70;57.10;;;;;;4998252;28;19925;-59
2024/01/06 12:43:03;;;;;;;;;;;19.70;56.80;;;;;;5014580;28;19929;-59
2024/01/06 12:45:29;;;;;;;;;;;19.70;56.90;;;;;;5026272;28;19925;-60
2024/01/06 12:47:54;;;;;;;;;;;19.70;57.10;;;;;;5034812;28;20016;-60
2024/01/06 12:50:20;;;;;;;;;;;19.70;57.20;;;;;;5034384;28;19952;-59
2024/01/06 12:52:45;;;;;;;;;;;19.70;57.30;;;;;;5035000;28;19932;-59
2024/01/06 12:55:11;;;;;;;;;;;19.70;57.30;;;;;;5033168;28;20047;-59
2024/01/06 12:57:37;;;;;;;;;;;19.70;57.40;;;;;;5014119;28;19932;-58
2024/01/06 13:00:03;;;;;;;;;;;19.70;57.40;;;;;;5021376;28;20380;-59
2024/01/06 13:02:29;;;;;;;;;;;19.70;58.10;;;;;;5034833;28;20027;-58
2024/01/06 13:04:55;;;;;;;;;;;19.70;57.50;;;;;;5033739;28;20021;-58
2024/01/06 13:07:22;;;;;;;;;;;19.70;57.50;;;;;;5034954;28;19988;-58
2024/01/06 13:09:47;;;;;;;;;;;19.70;57.50;;;;;;5035115;28;19987;-58
2024/01/06 13:12:13;;;;;;;;;;;19.80;57.70;;;;;;5033824;28;20357;-59
2024/01/06 13:14:38;;;;;;;;;;;19.80;57.60;;;;;;5030670;28;19987;-58
2024/01/06 13:17:05;;;;;;;;;;;19.80;57.60;;;;;;5014323;28;20005;-59
2024/01/06 13:19:30;;;;;;;;;;;19.80;57.60;;;;;;5014099;28;19995;-59
2024/01/06 13:21:56;;;;;;;;;;;19.80;57.60;;;;;;5014424;28;20389;-58
2024/01/06 13:24:21;;;;;;;;;;;19.80;57.70;;;;;;5014628;28;19937;-59
2024/01/06 13:26:47;;;;;;;;;;;19.80;57.70;;;;;;4996397;28;20012;-59
2024/01/06 13:29:12;;;;;;;;;;;19.90;57.70;;;;;;4996931;28;19932;-59
2024/01/06 13:31:38;;;;;;;;;;;19.90;57.70;;;;;;5014506;28;19932;-59
2024/01/06 13:34:05;;;;;;;;;;;19.90;58.40;;;;;;5013807;28;19926;-59
2024/01/06 13:36:31;;;;;;;;;;;19.90;57.70;;;;;;5014699;28;19925;-59
2024/01/06 13:38:56;;;;;;;;;;;19.90;57.70;;;;;;5013564;28;20415;-59
2024/01/06 13:41:22;;;;;;;;;;;19.90;57.70;;;;;;5014542;28;20419;-58
2024/01/06 13:43:48;;;;;;;;;;;19.90;57.60;;;;;;5014307;28;19932;-58
2024/01/06 13:46:15;;;;;;;;;;;19.90;57.50;;;;;;5029211;28;20394;-59
2024/01/06 13:48:41;;;;;;;;;;;20.00;57.50;;;;;;5033109;28;20600;-59
2024/01/06 13:51:07;;;;;;;;;;;19.90;57.40;;;;;;5033865;28;19932;-58
2024/01/06 13:53:32;;;;;;;;;;;20.00;57.40;;;;;;5033499;28;20388;-59
2024/01/06 13:55:58;;;;;;;;;;;20.00;57.50;;;;;;5033753;28;20020;-60
2024/01/06 13:58:23;;;;;;;;;;;20.00;57.40;;;;;;5033811;28;20335;-60
2024/01/06 14:00:49;;;;;;;;;;;20.00;57.40;;;;;;5032879;28;19936;-60
2024/01/06 14:03:15;;;;;;;;;;;20.00;57.40;;;;;;5033349;28;19964;-60
2024/01/06 14:05:40;;;;;;;;;;;20.00;57.50;;;;;;5016091;28;19929;-60
2024/01/06 14:08:06;;;;;;;;;;;20.00;57.50;;;;;;5032949;28;19928;-59